Terminal Aerodrome Forecast
Issued by NWS Grand Forks, ND

Home | Current Version | Previous Version | Graphics & Text | Print | Product List | Glossary On
Versions: 1 2 3 4 5 6 7 8 9 10 11 12 13 14 15 16 17 18 19 20 21 22 23 24
000
FTUS43 KFGF 191125
TAFFAR
TAF
KFAR 191125Z 1912/2012 36013KT P6SM BKN150
     FM200000 01012G20KT 6SM -SN BLSN OVC050
     FM200200 01014G20KT 3SM -SN BLSN OVC045
     FM200300 01013G20KT 1 1/2SM -SN BLSN OVC035
     FM200600 36012KT 1SM -SN BLSN OVC015
     FM201000 35011KT 1SM -SN OVC015=

USA.gov is the U.S. government's official web portal to all federal, state and local government web resources and services.